Ocean Majesty — CQSC — position and weather

sailwx.info

Track history (hours):
 
Tides and Currents Weather Stations Pressure Air Temp Water Temp Dewpoint Dewpoint Depression Visibility Wind Speed Wind Dir Waves Ship Positions

Ocean Majesty

Last reported at 2015-Oct-19 22:33 UTC. Time now 2016-Feb-12 22:35 UTC.
Position N 37°37' E 023°55'.
Warning: this ship's position is months out of date.

Length 136 m; draft 6.3 m.

Type: Passenger vessel. MMSI: 255717000.

Date/timePositionNaut miles runAvg speedWind from/ knotsBaromVisibWave heightAir tempDewpointWater temp
2015-Oct-19 22:33N 37°37' E 023°55'1111.3
2015-Oct-19 21:33N 37°41' E 023°42'1211.6
2015-Oct-19 20:33N 37°51' E 023°36'5 0.4
2015-Oct-19 06:33N 37°56' E 023°38'0 0.0
2015-Oct-19 05:21N 37°56' E 023°38'0 0.0
2015-Oct-18 04:27N 37°56' E 023°38'1 1.2
2015-Oct-18 03:33N 37°56' E 023°37'1111.1
2015-Oct-18 02:33N 37°46' E 023°43'6011.1
2015-Oct-17 21:11N 37°12' E 024°45'5411.7
2015-Oct-17 16:33N 36°27' E 025°22'4 4.2
2015-Oct-17 15:33N 36°23' E 025°24'2 2.1
2015-Oct-17 14:32N 36°25' E 025°25'1 0.7
2015-Oct-17 13:32N 36°25' E 025°25'0 0.1
2015-Oct-17 12:33N 36°25' E 025°25'0 0.2
2015-Oct-17 11:33N 36°25' E 025°25'0 0.1
2015-Oct-17 10:33N 36°25' E 025°25'0 0.2
2015-Oct-17 09:33N 36°25' E 025°25'0 0.3
2015-Oct-17 08:33N 36°26' E 025°25'0 0.1
2015-Oct-17 07:33N 36°25' E 025°25'0 0.3
2015-Oct-17 06:32N 36°25' E 025°25'1 0.8
2015-Oct-17 05:33N 36°25' E 025°24'10 9.6
2015-Oct-17 04:32N 36°34' E 025°18'3812.6
2015-Oct-17 01:31N 37°02' E 024°47'5711.6
2015-Oct-16 20:33N 37°36' E 023°49'1111.4
2015-Oct-16 19:33N 37°45' E 023°39'1111.4
2015-Oct-16 18:33N 37°56' E 023°37'1 0.7
2015-Oct-16 17:32N 37°56' E 023°38'0 0.0
2015-Oct-16 16:32N 37°56' E 023°38'0 0.0
2015-Oct-16 15:32N 37°56' E 023°38'0 0.0
2015-Oct-16 14:23N 37°56' E 023°38'0 0.0
2015-Oct-16 13:32N 37°56' E 023°38'0 0.0
2015-Oct-16 12:32N 37°56' E 023°38'0 0.0
2015-Oct-16 11:32N 37°56' E 023°38'0 0.0
2015-Oct-16 10:32N 37°56' E 023°38'0 0.0
2015-Oct-16 09:32N 37°56' E 023°38'0 0.0
2015-Oct-16 08:32N 37°56' E 023°38'0 0.0
2015-Oct-16 07:28N 37°56' E 023°38'0 0.0
2015-Oct-16 06:29N 37°56' E 023°38'0 0.0
2015-Oct-16 05:32N 37°56' E 023°38'0 0.0
2015-Oct-16 04:32N 37°56' E 023°38'0 0.0
2015-Oct-16 03:32N 37°56' E 023°38'0 0.0
2015-Oct-16 02:32N 37°56' E 023°38'0 0.0
2015-Oct-16 01:26N 37°56' E 023°38'0 0.0
2015-Oct-16 00:31N 37°56' E 023°38'0 0.0
2015-Oct-15 23:31N 37°56' E 023°38'6 5.9
2015-Oct-15 22:33N 37°51' E 023°39'1414.0
2015-Oct-15 21:33N 37°39' E 023°50'4614.7
2015-Oct-15 18:27N 37°24' E 024°44'1314.7
2015-Oct-15 17:34N 37°21' E 024°60'1312.9
2015-Oct-15 16:34N 37°23' E 025°16'0 0.0
2015-Oct-15 15:32N 37°23' E 025°16'0 0.0
2015-Oct-15 14:32N 37°23' E 025°16'0 0.0
2015-Oct-15 13:32N 37°23' E 025°16'3 3.0
2015-Oct-15 12:33N 37°21' E 025°18'1514.9
2015-Oct-15 11:33N 37°20' E 025°37'  
2015-Oct-12 05:32N 34°17' E 030°15'3115.5
2015-Oct-12 03:33N 33°47' E 030°11'2115.8
2015-Oct-12 02:13N 33°26' E 030°07'1516.2
2015-Oct-12 01:19N 33°11' E 030°05'  
Track history (hours):
 
Tides and Currents Weather Stations Pressure Air Temp Water Temp Dewpoint Dewpoint Depression Visibility Wind Speed Wind Dir Waves Ship Positions

Ocean Majesty

Last reported at 2015-Oct-19 22:33 UTC. Time now 2016-Feb-12 22:35 UTC.
Position N 37°37' E 023°55'.
Warning: this ship's position is months out of date.

Length 136 m; draft 6.3 m.

Type: Passenger vessel. MMSI: 255717000.

Date/timePositionNaut miles runAvg speedWind from/ knotsBaromVisibWave heightAir tempDewpointWater temp
2015-Oct-19 22:33N 37°37' E 023°55'1111.3
2015-Oct-19 21:33N 37°41' E 023°42'1211.6
2015-Oct-19 20:33N 37°51' E 023°36'5 0.4
2015-Oct-19 06:33N 37°56' E 023°38'0 0.0
2015-Oct-19 05:21N 37°56' E 023°38'0 0.0
2015-Oct-18 04:27N 37°56' E 023°38'1 1.2
2015-Oct-18 03:33N 37°56' E 023°37'1111.1
2015-Oct-18 02:33N 37°46' E 023°43'6011.1
2015-Oct-17 21:11N 37°12' E 024°45'5411.7
2015-Oct-17 16:33N 36°27' E 025°22'4 4.2
2015-Oct-17 15:33N 36°23' E 025°24'2 2.1
2015-Oct-17 14:32N 36°25' E 025°25'1 0.7
2015-Oct-17 13:32N 36°25' E 025°25'0 0.1
2015-Oct-17 12:33N 36°25' E 025°25'0 0.2
2015-Oct-17 11:33N 36°25' E 025°25'0 0.1
2015-Oct-17 10:33N 36°25' E 025°25'0 0.2
2015-Oct-17 09:33N 36°25' E 025°25'0 0.3
2015-Oct-17 08:33N 36°26' E 025°25'0 0.1
2015-Oct-17 07:33N 36°25' E 025°25'0 0.3
2015-Oct-17 06:32N 36°25' E 025°25'1 0.8
2015-Oct-17 05:33N 36°25' E 025°24'10 9.6
2015-Oct-17 04:32N 36°34' E 025°18'3812.6
2015-Oct-17 01:31N 37°02' E 024°47'5711.6
2015-Oct-16 20:33N 37°36' E 023°49'1111.4
2015-Oct-16 19:33N 37°45' E 023°39'1111.4
2015-Oct-16 18:33N 37°56' E 023°37'1 0.7
2015-Oct-16 17:32N 37°56' E 023°38'0 0.0
2015-Oct-16 16:32N 37°56' E 023°38'0 0.0
2015-Oct-16 15:32N 37°56' E 023°38'0 0.0
2015-Oct-16 14:23N 37°56' E 023°38'0 0.0
2015-Oct-16 13:32N 37°56' E 023°38'0 0.0
2015-Oct-16 12:32N 37°56' E 023°38'0 0.0
2015-Oct-16 11:32N 37°56' E 023°38'0 0.0
2015-Oct-16 10:32N 37°56' E 023°38'0 0.0
2015-Oct-16 09:32N 37°56' E 023°38'0 0.0
2015-Oct-16 08:32N 37°56' E 023°38'0 0.0
2015-Oct-16 07:28N 37°56' E 023°38'0 0.0
2015-Oct-16 06:29N 37°56' E 023°38'0 0.0
2015-Oct-16 05:32N 37°56' E 023°38'0 0.0
2015-Oct-16 04:32N 37°56' E 023°38'0 0.0
2015-Oct-16 03:32N 37°56' E 023°38'0 0.0
2015-Oct-16 02:32N 37°56' E 023°38'0 0.0
2015-Oct-16 01:26N 37°56' E 023°38'0 0.0
2015-Oct-16 00:31N 37°56' E 023°38'0 0.0
2015-Oct-15 23:31N 37°56' E 023°38'6 5.9
2015-Oct-15 22:33N 37°51' E 023°39'1414.0
2015-Oct-15 21:33N 37°39' E 023°50'4614.7
2015-Oct-15 18:27N 37°24' E 024°44'1314.7
2015-Oct-15 17:34N 37°21' E 024°60'1312.9
2015-Oct-15 16:34N 37°23' E 025°16'0 0.0
2015-Oct-15 15:32N 37°23' E 025°16'0 0.0
2015-Oct-15 14:32N 37°23' E 025°16'0 0.0
2015-Oct-15 13:32N 37°23' E 025°16'3 3.0
2015-Oct-15 12:33N 37°21' E 025°18'1514.9
2015-Oct-15 11:33N 37°20' E 025°37'  
2015-Oct-12 05:32N 34°17' E 030°15'3115.5
2015-Oct-12 03:33N 33°47' E 030°11'2115.8
2015-Oct-12 02:13N 33°26' E 030°07'1516.2
2015-Oct-12 01:19N 33°11' E 030°05'  

Dump ship's entire track history